createdAt,value
2018-04-18T00:00:20.151Z,75.74
2018-04-18T00:01:20.146Z,75.74
2018-04-18T00:02:20.024Z,75.35
2018-04-18T00:03:19.966Z,75.45
2018-04-18T00:04:19.901Z,75.45
2018-04-18T00:05:19.835Z,75.45
2018-04-18T00:06:19.777Z,75.64
2018-04-18T00:07:19.712Z,75.64
2018-04-18T00:08:19.650Z,76.31
2018-04-18T00:09:19.589Z,76.03
2018-04-18T00:10:19.552Z,76.18
2018-04-18T00:11:19.462Z,75.89
2018-04-18T00:12:19.394Z,76.08
2018-04-18T00:13:19.333Z,76.56
2018-04-18T00:14:19.266Z,76.37
2018-04-18T00:15:19.208Z,76.37
2018-04-18T00:16:19.146Z,76.18
2018-04-18T00:17:19.077Z,76.31
2018-04-18T00:18:19.014Z,76.46
2018-04-18T00:19:18.948Z,76.46
2018-04-18T00:20:18.890Z,76.18
2018-04-18T00:21:18.828Z,76.37
2018-04-18T00:22:18.764Z,76.65
2018-04-18T00:23:18.701Z,76.65
2018-04-18T00:24:18.636Z,76.94
2018-04-18T00:25:18.576Z,77.03
2018-04-18T00:26:18.508Z,77.23
2018-04-18T00:27:18.446Z,76.56
2018-04-18T00:28:18.383Z,76.46
2018-04-18T00:29:18.322Z,77.32
2018-04-18T00:30:18.254Z,77.13
2018-04-18T00:31:18.189Z,77.03
2018-04-18T00:32:18.136Z,77.23
2018-04-18T00:33:18.067Z,76.46
2018-04-18T00:34:18.003Z,77.03
2018-04-18T00:35:17.941Z,77.23
2018-04-18T00:36:17.877Z,76.90
2018-04-18T00:37:17.876Z,77.00
2018-04-18T00:38:17.747Z,77.38
2018-04-18T00:39:17.684Z,77.28
2018-04-18T00:40:17.622Z,77.38
2018-04-18T00:41:17.557Z,77.67
2018-04-18T00:42:17.496Z,77.47
2018-04-18T00:43:17.434Z,77.47
2018-04-18T00:44:17.365Z,77.47
2018-04-18T00:45:17.303Z,77.57
2018-04-18T00:46:17.241Z,77.38
2018-04-18T00:47:17.179Z,77.28
2018-04-18T00:48:17.111Z,77.47
2018-04-18T00:49:17.052Z,77.28
2018-04-18T00:50:16.985Z,77.38
2018-04-18T00:51:16.918Z,77.38
2018-04-18T00:52:16.861Z,77.86
2018-04-18T00:53:16.802Z,77.76
2018-04-18T00:54:16.732Z,77.67
2018-04-18T00:55:16.671Z,78.14
2018-04-18T00:56:16.604Z,78.05
2018-04-18T00:57:16.539Z,78.14
2018-04-18T00:58:16.479Z,78.52
2018-04-18T00:59:16.413Z,78.23
2018-04-18T01:00:16.357Z,78.05
2018-04-18T01:01:16.292Z,77.47
2018-04-18T01:02:16.223Z,78.05
2018-04-18T01:03:16.165Z,77.95
2018-04-18T01:04:16.098Z,77.86
2018-04-18T01:05:16.036Z,78.14
2018-04-18T01:06:15.977Z,78.14
2018-04-18T01:07:15.906Z,77.47
2018-04-18T01:08:15.843Z,77.47
2018-04-18T01:09:15.776Z,77.47
2018-04-18T01:10:15.717Z,77.47
2018-04-18T01:11:15.645Z,77.67
2018-04-18T01:12:15.605Z,77.38
2018-04-18T01:13:15.524Z,78.14
2018-04-18T01:14:15.478Z,78.05
2018-04-18T01:15:15.397Z,77.86
2018-04-18T01:16:15.328Z,77.86
2018-04-18T01:17:15.267Z,78.05
2018-04-18T01:18:15.207Z,77.95
2018-04-18T01:19:15.141Z,77.47
2018-04-18T01:20:15.098Z,78.05
2018-04-18T01:21:15.015Z,78.33
2018-04-18T01:22:14.964Z,78.23
2018-04-18T01:23:14.888Z,78.43
2018-04-18T01:24:14.833Z,78.43
2018-04-18T01:25:14.763Z,78.33
2018-04-18T01:26:14.693Z,78.14
2018-04-18T01:27:14.643Z,78.23
2018-04-18T01:28:14.565Z,78.05
2018-04-18T01:29:14.503Z,78.23
2018-04-18T01:30:14.438Z,78.23
2018-04-18T01:31:14.373Z,78.14
2018-04-18T01:32:14.312Z,78.14
2018-04-18T01:33:14.247Z,77.95
2018-04-18T01:34:14.184Z,78.23
2018-04-18T01:35:14.118Z,78.39
2018-04-18T01:36:14.058Z,78.62
2018-04-18T01:37:13.992Z,78.58
2018-04-18T01:38:13.930Z,78.77
2018-04-18T01:39:13.865Z,79.25
2018-04-18T01:40:13.797Z,79.15
2018-04-18T01:41:13.738Z,78.96
2018-04-18T01:42:13.669Z,79.06
2018-04-18T01:43:14.595Z,78.86
2018-04-18T01:44:13.550Z,78.96
2018-04-18T01:45:13.482Z,78.96
2018-04-18T01:46:13.419Z,78.58
2018-04-18T01:47:13.355Z,79.06
2018-04-18T01:48:13.289Z,78.77
2018-04-18T01:49:13.227Z,78.96
2018-04-18T01:50:13.165Z,78.91
2018-04-18T01:51:13.096Z,78.77
2018-04-18T01:52:13.051Z,78.77
2018-04-18T01:53:12.964Z,78.96
2018-04-18T01:54:12.901Z,78.72
2018-04-18T01:55:12.837Z,78.86
2018-04-18T01:56:12.774Z,78.81
2018-04-18T01:57:12.716Z,78.72
2018-04-18T01:58:12.649Z,78.86
2018-04-18T01:59:12.585Z,79.00
2018-04-18T02:00:12.521Z,78.81
2018-04-18T02:01:12.457Z,78.72
2018-04-18T02:02:12.388Z,78.81
2018-04-18T02:03:12.325Z,78.86
2018-04-18T02:04:12.272Z,78.58
2018-04-18T02:05:12.201Z,79.06
2018-04-18T02:06:12.135Z,79.06
2018-04-18T02:07:12.070Z,79.06
2018-04-18T02:08:12.008Z,79.53
2018-04-18T02:09:11.945Z,79.53
2018-04-18T02:10:11.890Z,79.15
2018-04-18T02:11:11.816Z,79.35
2018-04-18T02:12:11.749Z,79.53
2018-04-18T02:13:11.687Z,79.44
2018-04-18T02:14:11.620Z,80.11
2018-04-18T02:15:11.557Z,79.72
2018-04-18T02:16:11.494Z,80.20
2018-04-18T02:17:11.433Z,79.91
2018-04-18T02:18:11.370Z,80.01
2018-04-18T02:19:11.301Z,80.11
2018-04-18T02:20:11.236Z,79.91
2018-04-18T02:21:11.173Z,80.20
2018-04-18T02:22:11.113Z,80.87
2018-04-18T02:23:11.062Z,80.11
2018-04-18T02:24:10.980Z,80.11
2018-04-18T02:25:10.917Z,80.39
2018-04-18T02:26:10.853Z,80.30
2018-04-18T02:27:10.788Z,80.92
2018-04-18T02:28:10.733Z,80.64
2018-04-18T02:29:10.662Z,81.21
2018-04-18T02:30:10.597Z,81.21
2018-04-18T02:31:10.538Z,80.73
2018-04-18T02:32:10.465Z,80.92
2018-04-18T02:33:10.404Z,81.12
2018-04-18T02:34:10.338Z,81.12
2018-04-18T02:35:10.271Z,81.40
2018-04-18T02:36:10.208Z,81.12
2018-04-18T02:37:10.146Z,81.25
2018-04-18T02:38:10.096Z,81.25
2018-04-18T02:39:10.013Z,80.68
2018-04-18T02:40:09.954Z,80.87
2018-04-18T02:41:09.889Z,80.96
2018-04-18T02:42:09.825Z,81.12
2018-04-18T02:43:09.760Z,81.21
2018-04-18T02:44:09.693Z,81.25
2018-04-18T02:45:09.629Z,81.35
2018-04-18T02:46:09.569Z,81.25
2018-04-18T02:47:09.508Z,81.25
2018-04-18T02:48:09.443Z,81.25
2018-04-18T02:49:09.374Z,81.73
2018-04-18T02:50:09.309Z,81.12
2018-04-18T02:51:09.252Z,81.21
2018-04-18T02:52:09.179Z,81.68
2018-04-18T02:53:09.119Z,81.30
2018-04-18T02:54:09.050Z,81.21
2018-04-18T02:55:08.996Z,81.68
2018-04-18T02:56:08.923Z,81.97
2018-04-18T02:57:08.864Z,81.88
2018-04-18T02:58:08.788Z,81.88
2018-04-18T02:59:08.731Z,81.88
2018-04-18T03:00:08.666Z,81.97
2018-04-18T03:01:08.620Z,82.26
2018-04-18T03:02:08.536Z,82.35
2018-04-18T03:03:08.472Z,82.07
2018-04-18T03:04:08.404Z,82.17
2018-04-18T03:05:08.343Z,82.45
2018-04-18T03:06:08.286Z,82.45
2018-04-18T03:07:08.212Z,82.26
2018-04-18T03:08:08.148Z,82.17
2018-04-18T03:09:08.085Z,82.64
2018-04-18T03:10:08.020Z,82.73
2018-04-18T03:11:07.957Z,82.83
2018-04-18T03:12:07.893Z,82.54
2018-04-18T03:13:07.829Z,82.60
2018-04-18T03:14:07.782Z,82.98
2018-04-18T03:15:07.697Z,82.79
2018-04-18T03:16:07.633Z,82.79
2018-04-18T03:17:07.572Z,82.50
2018-04-18T03:18:07.502Z,82.73
2018-04-18T03:19:07.442Z,82.89
2018-04-18T03:20:07.379Z,83.02
2018-04-18T03:21:07.313Z,82.60
2018-04-18T03:22:07.248Z,82.60
2018-04-18T03:23:07.187Z,83.21
2018-04-18T03:24:07.117Z,82.79
2018-04-18T03:25:07.048Z,83.17
2018-04-18T03:26:14.628Z,83.07
2018-04-18T03:28:09.903Z,83.07
2018-04-18T03:29:08.835Z,83.26
2018-04-18T03:30:54.485Z,83.26
2018-04-18T03:32:03.018Z,83.36
2018-04-18T03:33:48.700Z,83.26
2018-04-18T03:34:48.592Z,83.45
2018-04-18T03:36:42.890Z,82.89
2018-04-18T03:37:42.790Z,83.40
2018-04-18T03:39:37.086Z,83.26
2018-04-18T03:40:36.988Z,83.45
2018-04-18T03:42:31.280Z,83.36
2018-04-18T03:43:31.182Z,83.55
2018-04-18T03:45:25.095Z,83.45
2018-04-18T03:46:24.388Z,83.65
2018-04-18T03:48:18.682Z,83.45
2018-04-18T03:49:18.585Z,83.74
2018-04-18T03:51:12.874Z,83.45
2018-04-18T03:52:12.780Z,83.36
2018-04-18T03:54:07.069Z,83.55
2018-04-18T03:55:06.974Z,84.50
2018-04-18T03:57:01.322Z,84.41
2018-04-18T03:58:01.180Z,84.03
2018-04-18T03:59:55.471Z,84.50
2018-04-18T04:00:55.375Z,84.60
2018-04-18T04:02:48.682Z,84.22
2018-04-18T04:03:48.589Z,84.31
2018-04-18T04:05:43.186Z,84.03
2018-04-18T04:06:43.077Z,84.16
2018-04-18T04:08:36.382Z,83.40
2018-04-18T04:09:36.288Z,83.50
2018-04-18T04:11:30.575Z,83.40
2018-04-18T04:12:30.480Z,83.40
2018-04-18T04:14:24.786Z,83.40
2018-04-18T04:15:24.676Z,83.74
2018-04-18T04:17:17.982Z,83.65
2018-04-18T04:18:17.889Z,84.03
2018-04-18T04:20:12.179Z,84.41
2018-04-18T04:21:12.083Z,84.31
2018-04-18T04:23:06.377Z,84.41
2018-04-18T04:24:06.284Z,84.22
2018-04-18T04:26:00.577Z,84.60
2018-04-18T04:27:00.481Z,84.22
2018-04-18T04:28:54.782Z,84.03
2018-04-18T04:29:54.686Z,84.12
2018-04-18T04:31:48.988Z,84.31
2018-04-18T04:32:48.885Z,84.41
2018-04-18T04:34:43.193Z,84.12
2018-04-18T04:35:43.083Z,84.22
2018-04-18T04:37:37.382Z,84.31
2018-04-18T04:38:37.284Z,84.60
2018-04-18T04:40:31.589Z,84.60
2018-04-18T04:41:31.477Z,84.69
2018-04-18T04:42:31.419Z,84.31
2018-04-18T04:43:31.360Z,84.69
2018-04-18T04:44:31.291Z,84.41
2018-04-18T04:45:31.221Z,84.74
2018-04-18T04:46:31.155Z,84.45
2018-04-18T04:47:31.086Z,84.36
2018-04-18T04:48:31.027Z,84.64
2018-04-18T04:49:30.964Z,84.16
2018-04-18T04:50:30.898Z,84.45
2018-04-18T04:51:30.844Z,84.45
2018-04-18T04:52:30.766Z,84.64
2018-04-18T04:53:30.701Z,84.36
2018-04-18T04:54:30.638Z,84.26
2018-04-18T04:55:30.579Z,84.45
2018-04-18T04:56:30.517Z,84.26
2018-04-18T04:57:30.443Z,84.64
2018-04-18T04:58:30.378Z,84.45
2018-04-18T04:59:30.313Z,84.45
2018-04-18T05:00:30.251Z,84.64
2018-04-18T05:01:30.187Z,84.36
2018-04-18T05:02:30.173Z,84.16
2018-04-18T05:03:30.063Z,84.26
2018-04-18T05:04:29.994Z,84.55
2018-04-18T05:05:29.936Z,84.64
2018-04-18T05:06:29.862Z,84.55
2018-04-18T05:07:29.794Z,84.64
2018-04-18T05:08:29.734Z,84.07
2018-04-18T05:09:29.674Z,84.26
2018-04-18T05:10:29.608Z,84.55
2018-04-18T05:11:29.534Z,84.26
2018-04-18T05:12:29.475Z,84.07
2018-04-18T05:13:29.414Z,84.16
2018-04-18T05:14:29.347Z,84.16
2018-04-18T05:15:29.281Z,84.07
2018-04-18T05:16:29.218Z,84.16
2018-04-18T05:17:29.162Z,84.26
2018-04-18T05:18:29.091Z,84.26
2018-04-18T05:19:29.042Z,84.36
2018-04-18T05:20:28.960Z,84.36
2018-04-18T05:21:28.900Z,84.45
2018-04-18T05:22:28.829Z,84.36
2018-04-18T05:23:28.770Z,84.26
2018-04-18T05:24:28.709Z,84.26
2018-04-18T05:25:28.639Z,84.45
2018-04-18T05:26:28.574Z,84.36
2018-04-18T05:27:28.511Z,84.36
2018-04-18T05:28:28.447Z,84.64
2018-04-18T05:29:28.383Z,83.83
2018-04-18T05:30:28.317Z,84.45
2018-04-18T05:31:28.250Z,84.45
2018-04-18T05:32:28.187Z,84.01
2018-04-18T05:33:28.132Z,84.30
2018-04-18T05:34:28.060Z,84.01
2018-04-18T05:35:28.002Z,83.44
2018-04-18T05:36:27.933Z,83.73
2018-04-18T05:37:27.869Z,83.54
2018-04-18T05:38:27.803Z,83.54
2018-04-18T05:39:27.738Z,83.73
2018-04-18T05:40:27.674Z,83.54
2018-04-18T05:41:27.614Z,83.54
2018-04-18T05:42:27.546Z,83.64
2018-04-18T05:43:27.482Z,83.44
2018-04-18T05:44:27.419Z,83.25
2018-04-18T05:45:27.355Z,83.29
2018-04-18T05:46:27.293Z,83.01
2018-04-18T05:47:27.232Z,83.25
2018-04-18T05:48:27.162Z,83.11
2018-04-18T05:49:27.098Z,82.72
2018-04-18T05:50:27.036Z,82.82
2018-04-18T05:51:26.970Z,82.91
2018-04-18T05:52:26.907Z,83.11
2018-04-18T05:53:26.844Z,82.63
2018-04-18T05:54:26.785Z,82.72
2018-04-18T05:55:26.716Z,82.82
2018-04-18T05:56:26.658Z,82.72
2018-04-18T05:57:26.588Z,82.82
2018-04-18T05:58:26.523Z,82.95
2018-04-18T05:59:26.463Z,82.19
2018-04-18T06:00:26.399Z,82.48
2018-04-18T06:01:26.335Z,82.57
2018-04-18T06:02:26.270Z,82.29
2018-04-18T06:03:26.208Z,82.09
2018-04-18T06:04:26.149Z,81.71
2018-04-18T06:05:26.080Z,82.00
2018-04-18T06:06:26.025Z,82.38
2018-04-18T06:07:25.952Z,81.62
2018-04-18T06:08:25.890Z,82.04
2018-04-18T06:09:25.822Z,81.43
2018-04-18T06:10:25.762Z,81.43
2018-04-18T06:11:25.698Z,81.47
2018-04-18T06:12:25.635Z,81.47
2018-04-18T06:13:25.572Z,81.66
2018-04-18T06:14:25.522Z,81.37
2018-04-18T06:15:25.443Z,81.27
2018-04-18T06:16:25.381Z,81.09
2018-04-18T06:17:25.319Z,81.18
2018-04-18T06:18:25.270Z,80.90
2018-04-18T06:19:25.242Z,80.90
2018-04-18T06:20:25.128Z,81.09
2018-04-18T06:21:25.071Z,80.22
2018-04-18T06:22:25.003Z,80.55
2018-04-18T06:23:24.945Z,80.65
2018-04-18T06:24:24.873Z,80.46
2018-04-18T06:25:24.811Z,80.65
2018-04-18T06:26:24.748Z,80.27
2018-04-18T06:27:24.685Z,80.17
2018-04-18T06:28:24.624Z,80.36
2018-04-18T06:29:24.565Z,79.98
2018-04-18T06:30:24.506Z,80.07
2018-04-18T06:31:24.437Z,80.07
2018-04-18T06:32:24.370Z,79.50
2018-04-18T06:33:24.311Z,79.31
2018-04-18T06:34:24.246Z,79.35
2018-04-18T06:35:24.178Z,79.83
2018-04-18T06:36:24.121Z,80.21
2018-04-18T06:37:24.058Z,79.25
2018-04-18T06:38:23.994Z,79.16
2018-04-18T06:39:23.935Z,79.16
2018-04-18T06:40:23.866Z,79.16
2018-04-18T06:41:23.804Z,79.16
2018-04-18T06:42:23.743Z,79.16
2018-04-18T06:43:23.680Z,78.78
2018-04-18T06:44:23.619Z,78.78
2018-04-18T06:45:23.557Z,79.00
2018-04-18T06:46:23.491Z,78.05
2018-04-18T06:47:23.509Z,78.24
2018-04-18T06:48:23.366Z,78.43
2018-04-18T06:49:23.309Z,78.34
2018-04-18T06:50:23.244Z,78.72
2018-04-18T06:51:23.181Z,78.05
2018-04-18T06:52:23.118Z,77.67
2018-04-18T06:53:23.063Z,77.67
2018-04-18T06:54:22.993Z,78.05
2018-04-18T06:55:22.932Z,77.86
2018-04-18T06:56:22.873Z,77.67
2018-04-18T06:57:22.830Z,77.80
2018-04-18T06:58:22.785Z,77.33
2018-04-18T06:59:22.691Z,77.33
2018-04-18T07:00:22.621Z,77.33
2018-04-18T07:01:22.566Z,77.42
2018-04-18T07:02:22.498Z,76.75
2018-04-18T07:03:22.467Z,76.65
2018-04-18T07:04:22.380Z,76.46
2018-04-18T07:05:22.312Z,76.27
2018-04-18T07:06:22.251Z,76.27
2018-04-18T07:07:22.194Z,76.27
2018-04-18T07:08:22.129Z,75.60
2018-04-18T07:09:22.070Z,75.51
2018-04-18T07:10:22.005Z,75.83
2018-04-18T07:11:21.945Z,75.45
2018-04-18T07:12:21.882Z,75.54
2018-04-18T07:13:21.829Z,76.12
2018-04-18T07:14:21.759Z,75.26
2018-04-18T07:15:21.696Z,75.26
2018-04-18T07:16:21.635Z,75.64
2018-04-18T07:17:21.577Z,74.87
2018-04-18T07:18:21.518Z,74.91
2018-04-18T07:19:21.449Z,74.91
2018-04-18T07:20:21.387Z,74.40
2018-04-18T07:21:21.354Z,74.40
2018-04-18T07:22:21.274Z,74.72
2018-04-18T07:23:21.204Z,73.76
2018-04-18T07:24:21.143Z,73.47
2018-04-18T07:25:21.079Z,73.47
2018-04-18T07:26:21.026Z,72.99
2018-04-18T07:27:20.960Z,73.22
2018-04-18T07:28:20.897Z,72.55
2018-04-18T07:29:20.840Z,72.61
2018-04-18T07:30:20.784Z,72.45
2018-04-18T07:31:20.719Z,72.13
2018-04-18T07:32:20.658Z,71.59
2018-04-18T07:33:20.594Z,71.11
2018-04-18T07:34:20.566Z,71.40
2018-04-18T07:35:20.472Z,71.59
2018-04-18T07:36:20.414Z,71.02
2018-04-18T07:37:20.353Z,71.02
2018-04-18T07:38:20.295Z,70.83
2018-04-18T07:39:20.234Z,70.35
2018-04-18T07:40:20.178Z,70.64
2018-04-18T07:41:20.110Z,70.35
2018-04-18T07:42:20.057Z,69.81
2018-04-18T07:43:19.990Z,69.81
2018-04-18T07:44:19.925Z,69.42
2018-04-18T07:45:19.863Z,69.33
2018-04-18T07:46:19.803Z,69.42
2018-04-18T07:47:19.741Z,69.23
2018-04-18T07:48:19.681Z,68.75
2018-04-18T07:49:19.622Z,68.56
2018-04-18T07:50:19.562Z,68.18
2018-04-18T07:51:19.499Z,68.46
2018-04-18T07:52:19.444Z,68.27
2018-04-18T07:53:19.380Z,67.50
2018-04-18T07:54:19.323Z,67.99
2018-04-18T07:55:19.269Z,67.73
2018-04-18T07:56:19.206Z,67.83
2018-04-18T07:57:19.139Z,67.25
2018-04-18T07:58:19.076Z,67.16
2018-04-18T07:59:19.015Z,67.16
2018-04-18T08:00:18.955Z,67.16
2018-04-18T08:01:18.898Z,66.96
2018-04-18T08:02:18.838Z,66.58
2018-04-18T08:03:25.705Z,66.49
2018-04-18T08:04:18.714Z,65.91
2018-04-18T08:05:18.872Z,66.67
2018-04-18T08:06:18.593Z,65.62
2018-04-18T08:07:18.536Z,65.62
2018-04-18T08:08:18.473Z,65.62
2018-04-18T08:09:18.413Z,65.17
2018-04-18T08:10:18.362Z,65.17
2018-04-18T08:11:18.288Z,64.98
2018-04-18T08:12:18.231Z,64.89
2018-04-18T08:13:18.177Z,65.27
2018-04-18T08:14:18.112Z,64.50
2018-04-18T08:15:18.119Z,64.59
2018-04-18T08:16:17.991Z,64.31
2018-04-18T08:17:17.928Z,64.02
2018-04-18T08:18:17.896Z,64.40
2018-04-18T08:19:17.887Z,63.64
2018-04-18T08:20:18.249Z,64.12
2018-04-18T08:21:17.717Z,63.73
2018-04-18T08:22:17.632Z,62.90
2018-04-18T08:23:17.591Z,62.90
2018-04-18T08:24:17.510Z,63.38
2018-04-18T08:25:17.480Z,62.99
2018-04-18T08:26:17.394Z,62.81
2018-04-18T08:27:17.331Z,62.52
2018-04-18T08:28:17.272Z,62.32
2018-04-18T08:29:17.225Z,62.32
2018-04-18T08:30:17.151Z,62.23
2018-04-18T08:31:17.091Z,61.65
2018-04-18T08:32:17.031Z,61.84
2018-04-18T08:33:16.977Z,62.13
2018-04-18T08:34:16.915Z,62.04
2018-04-18T08:35:16.858Z,61.17
2018-04-18T08:36:16.794Z,61.08
2018-04-18T08:37:16.730Z,61.20
2018-04-18T08:38:16.672Z,61.20
2018-04-18T08:39:16.639Z,61.30
2018-04-18T08:40:16.566Z,61.40
2018-04-18T08:41:16.499Z,60.72
2018-04-18T08:42:16.433Z,60.91
2018-04-18T08:43:16.388Z,60.72
2018-04-18T08:44:16.314Z,60.72
2018-04-18T08:45:16.256Z,60.72
2018-04-18T08:46:16.198Z,60.63
2018-04-18T08:47:16.136Z,60.72
2018-04-18T08:48:16.080Z,60.53
2018-04-18T08:49:16.039Z,60.63
2018-04-18T08:50:15.959Z,60.34
2018-04-18T08:51:15.899Z,60.63
2018-04-18T08:52:15.867Z,60.14
2018-04-18T08:53:15.787Z,60.82
2018-04-18T08:54:15.727Z,60.14
2018-04-18T08:55:15.658Z,60.14
2018-04-18T08:56:15.596Z,60.05
2018-04-18T08:57:15.552Z,59.99
2018-04-18T08:58:15.491Z,59.95
2018-04-18T08:59:15.419Z,59.89
2018-04-18T09:00:22.222Z,60.05
2018-04-18T09:01:15.303Z,59.95
2018-04-18T09:02:15.249Z,59.95
2018-04-18T09:03:15.181Z,59.66
2018-04-18T09:04:15.146Z,59.79
2018-04-18T09:05:15.068Z,60.17
2018-04-18T09:06:15.006Z,60.08
2018-04-18T09:07:14.959Z,60.17
2018-04-18T09:08:14.895Z,59.89
2018-04-18T09:09:14.827Z,59.69
2018-04-18T09:10:14.770Z,59.79
2018-04-18T09:11:14.711Z,59.60
2018-04-18T09:12:14.774Z,59.79
2018-04-18T09:13:14.611Z,59.02
2018-04-18T09:14:14.535Z,59.50
2018-04-18T09:15:14.478Z,59.22
2018-04-18T09:16:14.417Z,59.22
2018-04-18T09:17:14.358Z,59.50
2018-04-18T09:18:14.301Z,59.22
2018-04-18T09:19:14.243Z,58.83
2018-04-18T09:20:14.183Z,59.15
2018-04-18T09:21:14.125Z,58.67
2018-04-18T09:22:14.063Z,59.24
2018-04-18T09:23:14.010Z,59.24
2018-04-18T09:24:13.946Z,58.37
2018-04-18T09:25:13.889Z,58.54
2018-04-18T09:26:13.830Z,58.83
2018-04-18T09:27:13.771Z,59.31
2018-04-18T09:28:13.714Z,59.50
2018-04-18T09:29:13.659Z,58.83
2018-04-18T09:30:13.596Z,58.73
2018-04-18T09:31:13.538Z,58.57
2018-04-18T09:32:13.481Z,59.05
2018-04-18T09:33:13.420Z,58.57
2018-04-18T09:34:13.359Z,58.76
2018-04-18T09:35:13.299Z,58.95
2018-04-18T09:36:13.244Z,58.86
2018-04-18T09:37:13.183Z,59.05
2018-04-18T09:38:13.129Z,58.57
2018-04-18T09:39:13.074Z,58.28
2018-04-18T09:40:13.010Z,59.24
2018-04-18T09:41:12.949Z,58.76
2018-04-18T09:42:12.890Z,58.18
2018-04-18T09:43:12.832Z,58.86
2018-04-18T09:44:12.799Z,58.86
2018-04-18T09:45:12.714Z,58.57
2018-04-18T09:46:12.687Z,58.95
2018-04-18T09:47:12.624Z,58.67
2018-04-18T09:48:12.543Z,59.05
2018-04-18T09:49:12.482Z,58.67
2018-04-18T09:50:12.426Z,59.24
2018-04-18T09:51:12.369Z,58.57
2018-04-18T09:52:12.309Z,58.47
2018-04-18T09:53:12.244Z,58.95
2018-04-18T09:54:12.189Z,58.76
2018-04-18T09:55:12.128Z,58.76
2018-04-18T09:56:12.077Z,58.40
2018-04-18T09:57:12.015Z,58.22
2018-04-18T09:58:11.959Z,58.22
2018-04-18T09:59:11.897Z,57.92
2018-04-18T10:00:11.841Z,58.12
2018-04-18T10:01:11.789Z,57.64
2018-04-18T10:02:11.722Z,57.73
2018-04-18T10:03:11.667Z,57.92
2018-04-18T10:04:11.606Z,57.92
2018-04-18T10:05:11.547Z,57.99
2018-04-18T10:06:11.486Z,58.12
2018-04-18T10:07:11.432Z,58.22
2018-04-18T10:08:11.370Z,57.83
2018-04-18T10:09:11.326Z,57.73
2018-04-18T10:10:11.256Z,57.83
2018-04-18T10:11:11.198Z,57.92
2018-04-18T10:12:11.140Z,57.92
2018-04-18T10:13:11.088Z,57.54
2018-04-18T10:14:11.024Z,56.67
2018-04-18T10:15:10.964Z,56.96
2018-04-18T10:16:10.945Z,56.58
2018-04-18T10:17:10.853Z,56.80
2018-04-18T10:18:10.793Z,56.32
2018-04-18T10:19:10.737Z,56.70
2018-04-18T10:20:10.678Z,56.70
2018-04-18T10:21:10.619Z,56.60
2018-04-18T10:22:10.570Z,56.12
2018-04-18T10:23:10.499Z,55.83
2018-04-18T10:24:10.442Z,55.55
2018-04-18T10:25:10.385Z,55.65
2018-04-18T10:26:10.334Z,55.45
2018-04-18T10:27:10.265Z,55.16
2018-04-18T10:28:10.213Z,54.87
2018-04-18T10:29:10.151Z,55.07
2018-04-18T10:30:10.093Z,55.13
2018-04-18T10:31:10.037Z,55.26
2018-04-18T10:32:24.758Z,54.68
2018-04-18T10:33:09.946Z,54.78
2018-04-18T10:34:09.863Z,54.68
2018-04-18T10:35:09.816Z,54.97
2018-04-18T10:36:09.758Z,55.07
2018-04-18T10:37:09.692Z,54.49
2018-04-18T10:38:09.666Z,54.39
2018-04-18T10:39:09.570Z,54.87
2018-04-18T10:40:09.513Z,54.87
2018-04-18T10:41:09.461Z,55.26
2018-04-18T10:42:09.406Z,54.68
2018-04-18T10:43:09.339Z,54.58
2018-04-18T10:44:09.284Z,54.39
2018-04-18T10:45:09.230Z,54.49
2018-04-18T10:46:09.172Z,54.00
2018-04-18T10:47:09.112Z,54.10
2018-04-18T10:56:53.101Z,51.34
2018-04-18T10:57:53.008Z,50.59
2018-04-18T10:59:46.335Z,50.69
2018-04-18T11:00:46.236Z,50.11
2018-04-18T11:02:40.786Z,49.63
2018-04-18T11:03:40.612Z,49.27
2018-04-18T11:05:33.964Z,49.27
2018-04-18T11:06:33.847Z,49.37
2018-04-18T11:08:27.191Z,49.27
2018-04-18T11:09:27.096Z,49.27
2018-04-18T11:11:20.414Z,49.17
2018-04-18T11:12:20.321Z,48.81
2018-04-18T11:14:13.642Z,48.42
2018-04-18T11:15:13.559Z,48.61
2018-04-18T11:17:06.883Z,48.81
2018-04-18T11:18:06.789Z,48.64
2018-04-18T11:20:00.182Z,48.64
2018-04-18T11:21:00.082Z,48.74
2018-04-18T11:22:54.416Z,48.54
2018-04-18T11:23:54.332Z,48.54
2018-04-18T11:25:47.660Z,48.47
2018-04-18T11:26:47.568Z,48.57
2018-04-18T11:28:40.903Z,47.80
2018-04-18T11:29:40.821Z,47.89
2018-04-18T11:31:35.177Z,47.80
2018-04-18T11:32:35.090Z,47.60
2018-04-18T11:34:29.405Z,48.08
2018-04-18T11:35:29.326Z,47.63
2018-04-18T11:37:23.640Z,47.70
2018-04-18T11:38:23.558Z,47.81
2018-04-18T11:40:17.886Z,47.63
2018-04-18T11:41:17.798Z,47.24
2018-04-18T11:43:11.139Z,47.43
2018-04-18T11:44:11.093Z,46.85
2018-04-18T11:46:05.393Z,46.95
2018-04-18T11:47:05.303Z,46.88
2018-04-18T11:48:59.636Z,46.10
2018-04-18T11:49:59.570Z,45.93
2018-04-18T11:51:52.920Z,45.45
2018-04-18T11:52:52.833Z,45.45
2018-04-18T11:54:46.166Z,45.18
2018-04-18T11:55:46.090Z,45.57
2018-04-18T11:57:39.482Z,45.18
2018-04-18T11:58:39.348Z,45.18
2018-04-18T12:00:33.690Z,45.57
2018-04-18T12:01:33.611Z,45.10
2018-04-18T12:03:26.947Z,45.47
2018-04-18T12:04:26.870Z,45.37
2018-04-18T12:06:21.259Z,45.01
2018-04-18T12:07:21.166Z,44.81
2018-04-18T12:09:14.538Z,44.64
2018-04-18T12:10:14.431Z,44.35
2018-04-18T12:12:08.760Z,44.06
2018-04-18T12:13:08.688Z,43.50
2018-04-18T12:15:02.022Z,42.54
2018-04-18T12:16:01.956Z,42.54
2018-04-18T12:17:56.332Z,42.05
2018-04-18T12:18:56.252Z,42.14
2018-04-18T12:20:50.575Z,41.97
2018-04-18T12:21:50.503Z,42.17
2018-04-18T12:23:43.858Z,42.07
2018-04-18T12:24:43.770Z,41.88
2018-04-18T12:26:38.130Z,41.97
2018-04-18T12:27:38.019Z,41.68
2018-04-18T12:29:32.379Z,41.58
2018-04-18T12:30:32.300Z,41.39
2018-04-18T12:32:26.635Z,41.20
2018-04-18T12:33:26.561Z,40.91
2018-04-18T12:35:20.900Z,40.25
2018-04-18T12:36:20.820Z,40.44
2018-04-18T12:38:14.170Z,40.08
2018-04-18T12:39:14.092Z,39.69
2018-04-18T12:41:08.448Z,39.41
2018-04-18T12:42:08.359Z,39.03
2018-04-18T12:44:01.710Z,39.03
2018-04-18T12:45:01.638Z,38.73
2018-04-18T12:46:55.979Z,38.44
2018-04-18T12:47:55.906Z,38.25
2018-04-18T12:49:50.501Z,37.76
2018-04-18T12:50:50.427Z,37.76
2018-04-18T12:52:43.898Z,37.30
2018-04-18T12:53:43.708Z,36.83
2018-04-18T12:55:37.058Z,36.63
2018-04-18T12:56:36.986Z,36.34
2018-04-18T12:58:31.312Z,35.49
2018-04-18T12:59:31.248Z,35.02
2018-04-18T13:01:24.593Z,34.63
2018-04-18T13:02:24.524Z,34.33
2018-04-18T13:04:18.871Z,34.52
2018-04-18T13:05:18.798Z,34.22
2018-04-18T13:07:13.151Z,34.12
2018-04-18T13:08:13.070Z,34.12
2018-04-18T13:10:06.415Z,34.03
2018-04-18T13:11:06.350Z,33.65
2018-04-18T13:12:59.728Z,32.87
2018-04-18T13:13:59.636Z,33.28
2018-04-18T13:15:54.000Z,33.28
2018-04-18T13:16:53.909Z,32.99
2018-04-18T13:18:48.257Z,32.81
2018-04-18T13:19:48.192Z,32.24
2018-04-18T13:21:41.539Z,32.62
2018-04-18T13:22:41.477Z,32.32
2018-04-18T13:24:34.827Z,32.42
2018-04-18T13:25:34.771Z,32.43
2018-04-18T13:27:28.107Z,32.42
2018-04-18T13:28:28.036Z,32.32
2018-04-18T13:29:27.988Z,32.62
2018-04-18T13:30:27.954Z,32.03
2018-04-18T13:31:27.917Z,32.15
2018-04-18T13:32:27.875Z,31.28
2018-04-18T13:33:27.833Z,31.09
2018-04-18T13:34:27.816Z,30.52
2018-04-18T13:35:27.752Z,30.03
2018-04-18T13:36:27.711Z,29.93
2018-04-18T13:37:27.675Z,30.03
2018-04-18T13:38:27.628Z,30.03
2018-04-18T13:39:27.590Z,30.13
2018-04-18T13:40:27.553Z,29.95
2018-04-18T13:41:27.509Z,29.67
2018-04-18T13:42:27.471Z,29.10
2018-04-18T13:43:27.430Z,28.82
2018-04-18T13:44:27.389Z,28.43
2018-04-18T13:45:27.352Z,28.32
2018-04-18T13:46:27.312Z,27.94
2018-04-18T13:47:27.268Z,27.83
2018-04-18T13:48:27.244Z,27.55
2018-04-18T13:49:27.192Z,27.55
2018-04-18T13:50:27.154Z,27.84
2018-04-18T13:51:27.112Z,27.36
2018-04-18T13:52:27.070Z,26.70
2018-04-18T13:53:27.027Z,26.51
2018-04-18T13:54:26.991Z,26.72
2018-04-18T13:55:26.945Z,26.32
2018-04-18T13:56:26.905Z,26.32
2018-04-18T13:57:26.865Z,26.34
2018-04-18T13:58:26.827Z,25.96
2018-04-18T13:59:26.787Z,25.96
2018-04-18T14:00:26.747Z,25.76
2018-04-18T14:01:26.701Z,25.94
2018-04-18T14:02:26.667Z,26.32
2018-04-18T14:03:26.626Z,26.70
2018-04-18T14:04:26.578Z,26.60
2018-04-18T14:05:26.540Z,26.42
2018-04-18T14:06:26.499Z,26.14
2018-04-18T14:07:26.462Z,26.04
2018-04-18T14:08:26.418Z,26.12
2018-04-18T14:09:26.407Z,25.94
2018-04-18T14:10:26.339Z,25.17